sensor_id;sensor_type;location;lat;lon;timestamp;P1;durP1;ratioP1;P2;durP2;ratioP2
59263;SDS011;45030;42.720;23.344;2023-02-08T00:01:08;34.08;;;19.45;;
59263;SDS011;45030;42.720;23.344;2023-02-08T00:03:33;33.08;;;20.55;;
59263;SDS011;45030;42.720;23.344;2023-02-08T00:05:58;38.97;;;19.80;;
59263;SDS011;45030;42.720;23.344;2023-02-08T00:08:23;32.97;;;18.90;;
59263;SDS011;45030;42.720;23.344;2023-02-08T00:10:49;35.80;;;17.65;;
59263;SDS011;45030;42.720;23.344;2023-02-08T00:13:14;37.53;;;20.27;;
59263;SDS011;45030;42.720;23.344;2023-02-08T00:15:40;28.15;;;16.75;;
59263;SDS011;45030;42.720;23.344;2023-02-08T00:18:06;33.88;;;19.08;;
59263;SDS011;45030;42.720;23.344;2023-02-08T00:20:31;34.90;;;19.58;;
59263;SDS011;45030;42.720;23.344;2023-02-08T00:22:56;27.88;;;16.73;;
59263;SDS011;45030;42.720;23.344;2023-02-08T00:25:22;34.15;;;17.98;;
59263;SDS011;45030;42.720;23.344;2023-02-08T00:27:47;31.45;;;18.23;;
59263;SDS011;45030;42.720;23.344;2023-02-08T00:30:12;38.38;;;19.88;;
59263;SDS011;45030;42.720;23.344;2023-02-08T00:32:37;32.35;;;18.15;;
59263;SDS011;45030;42.720;23.344;2023-02-08T00:35:03;32.72;;;18.05;;
59263;SDS011;45030;42.720;23.344;2023-02-08T00:37:28;30.77;;;17.70;;
59263;SDS011;45030;42.720;23.344;2023-02-08T00:39:53;41.78;;;20.25;;
59263;SDS011;45030;42.720;23.344;2023-02-08T00:42:18;37.75;;;20.42;;
59263;SDS011;45030;42.720;23.344;2023-02-08T00:44:44;39.90;;;22.45;;
59263;SDS011;45030;42.720;23.344;2023-02-08T00:47:09;38.75;;;20.45;;
59263;SDS011;45030;42.720;23.344;2023-02-08T00:49:34;41.05;;;20.70;;
59263;SDS011;45030;42.720;23.344;2023-02-08T00:52:00;36.83;;;19.67;;
59263;SDS011;45030;42.720;23.344;2023-02-08T00:54:25;37.42;;;20.83;;
59263;SDS011;45030;42.720;23.344;2023-02-08T00:56:50;36.33;;;20.92;;
59263;SDS011;45030;42.720;23.344;2023-02-08T00:59:16;41.58;;;21.67;;
59263;SDS011;45030;42.720;23.344;2023-02-08T01:01:41;38.92;;;22.23;;
59263;SDS011;45030;42.720;23.344;2023-02-08T01:04:06;40.03;;;21.58;;
59263;SDS011;45030;42.720;23.344;2023-02-08T01:06:32;46.13;;;21.77;;
59263;SDS011;45030;42.720;23.344;2023-02-08T01:08:57;39.67;;;21.80;;
59263;SDS011;45030;42.720;23.344;2023-02-08T01:11:23;43.72;;;22.40;;
59263;SDS011;45030;42.720;23.344;2023-02-08T01:13:52;47.38;;;25.23;;
59263;SDS011;45030;42.720;23.344;2023-02-08T01:16:22;56.67;;;31.05;;
59263;SDS011;45030;42.720;23.344;2023-02-08T01:18:49;44.80;;;25.83;;
59263;SDS011;45030;42.720;23.344;2023-02-08T01:21:16;45.45;;;26.13;;
59263;SDS011;45030;42.720;23.344;2023-02-08T01:23:42;46.70;;;26.70;;
59263;SDS011;45030;42.720;23.344;2023-02-08T01:26:07;45.60;;;26.67;;
59263;SDS011;45030;42.720;23.344;2023-02-08T01:28:33;38.65;;;21.45;;
59263;SDS011;45030;42.720;23.344;2023-02-08T01:30:59;39.47;;;21.83;;
59263;SDS011;45030;42.720;23.344;2023-02-08T01:33:28;36.20;;;20.38;;
59263;SDS011;45030;42.720;23.344;2023-02-08T01:35:53;43.03;;;22.83;;
59263;SDS011;45030;42.720;23.344;2023-02-08T01:38:19;45.33;;;24.40;;
59263;SDS011;45030;42.720;23.344;2023-02-08T01:40:45;40.45;;;22.95;;
59263;SDS011;45030;42.720;23.344;2023-02-08T01:45:41;33.95;;;18.83;;
59263;SDS011;45030;42.720;23.344;2023-02-08T01:48:11;38.33;;;19.42;;
59263;SDS011;45030;42.720;23.344;2023-02-08T01:50:51;39.15;;;22.83;;
59263;SDS011;45030;42.720;23.344;2023-02-08T01:53:18;42.53;;;22.90;;
59263;SDS011;45030;42.720;23.344;2023-02-08T01:55:46;45.85;;;23.77;;
59263;SDS011;45030;42.720;23.344;2023-02-08T01:58:12;46.20;;;24.83;;
59263;SDS011;45030;42.720;23.344;2023-02-08T02:00:38;50.45;;;25.48;;
59263;SDS011;45030;42.720;23.344;2023-02-08T02:03:03;42.10;;;23.10;;
59263;SDS011;45030;42.720;23.344;2023-02-08T02:05:31;49.55;;;22.48;;
59263;SDS011;45030;42.720;23.344;2023-02-08T02:07:58;44.53;;;22.17;;
59263;SDS011;45030;42.720;23.344;2023-02-08T02:10:28;41.00;;;22.30;;
59263;SDS011;45030;42.720;23.344;2023-02-08T02:12:54;44.50;;;23.08;;
59263;SDS011;45030;42.720;23.344;2023-02-08T02:15:20;39.22;;;21.73;;
59263;SDS011;45030;42.720;23.344;2023-02-08T02:17:46;42.90;;;22.05;;
59263;SDS011;45030;42.720;23.344;2023-02-08T02:20:21;38.90;;;20.85;;
59263;SDS011;45030;42.720;23.344;2023-02-08T02:33:28;38.45;;;19.42;;
59263;SDS011;45030;42.720;23.344;2023-02-08T02:41:05;33.10;;;18.90;;
59263;SDS011;45030;42.720;23.344;2023-02-08T02:43:37;35.28;;;20.38;;
59263;SDS011;45030;42.720;23.344;2023-02-08T02:56:09;34.33;;;18.70;;
59263;SDS011;45030;42.720;23.344;2023-02-08T02:58:35;38.03;;;21.02;;
59263;SDS011;45030;42.720;23.344;2023-02-08T03:01:02;38.22;;;21.15;;
59263;SDS011;45030;42.720;23.344;2023-02-08T03:03:29;37.58;;;19.00;;
59263;SDS011;45030;42.720;23.344;2023-02-08T03:06:06;35.65;;;20.20;;
59263;SDS011;45030;42.720;23.344;2023-02-08T03:11:20;42.85;;;23.67;;
59263;SDS011;45030;42.720;23.344;2023-02-08T03:16:16;46.63;;;26.77;;
59263;SDS011;45030;42.720;23.344;2023-02-08T03:26:50;62.05;;;37.13;;
59263;SDS011;45030;42.720;23.344;2023-02-08T03:29:25;42.70;;;27.63;;
59263;SDS011;45030;42.720;23.344;2023-02-08T03:34:21;34.17;;;20.20;;
59263;SDS011;45030;42.720;23.344;2023-02-08T03:37:31;42.53;;;23.73;;
59263;SDS011;45030;42.720;23.344;2023-02-08T03:39:36;45.13;;;21.75;;
59263;SDS011;45030;42.720;23.344;2023-02-08T03:42:05;40.45;;;24.02;;
59263;SDS011;45030;42.720;23.344;2023-02-08T03:44:36;42.78;;;25.55;;
59263;SDS011;45030;42.720;23.344;2023-02-08T03:47:04;32.67;;;18.85;;
59263;SDS011;45030;42.720;23.344;2023-02-08T03:49:33;42.53;;;28.45;;
59263;SDS011;45030;42.720;23.344;2023-02-08T03:51:59;45.90;;;31.25;;
59263;SDS011;45030;42.720;23.344;2023-02-08T03:54:25;31.80;;;20.00;;
59263;SDS011;45030;42.720;23.344;2023-02-08T03:57:07;36.17;;;20.50;;
59263;SDS011;45030;42.720;23.344;2023-02-08T03:59:36;35.65;;;21.05;;
59263;SDS011;45030;42.720;23.344;2023-02-08T04:02:04;40.60;;;20.88;;
59263;SDS011;45030;42.720;23.344;2023-02-08T04:04:35;38.40;;;24.95;;
59263;SDS011;45030;42.720;23.344;2023-02-08T04:07:01;42.88;;;24.95;;
59263;SDS011;45030;42.720;23.344;2023-02-08T04:09:29;51.33;;;29.85;;
59263;SDS011;45030;42.720;23.344;2023-02-08T04:11:57;37.05;;;21.23;;
59263;SDS011;45030;42.720;23.344;2023-02-08T04:14:22;44.40;;;28.50;;
59263;SDS011;45030;42.720;23.344;2023-02-08T04:16:48;84.95;;;53.13;;
59263;SDS011;45030;42.720;23.344;2023-02-08T04:19:13;69.25;;;42.85;;
59263;SDS011;45030;42.720;23.344;2023-02-08T04:21:38;86.72;;;51.60;;
59263;SDS011;45030;42.720;23.344;2023-02-08T04:24:03;85.97;;;52.63;;
59263;SDS011;45030;42.720;23.344;2023-02-08T04:26:29;94.63;;;55.35;;
59263;SDS011;45030;42.720;23.344;2023-02-08T04:28:54;113.35;;;63.42;;
59263;SDS011;45030;42.720;23.344;2023-02-08T04:31:19;110.53;;;58.75;;
59263;SDS011;45030;42.720;23.344;2023-02-08T04:33:44;91.90;;;52.28;;
59263;SDS011;45030;42.720;23.344;2023-02-08T04:36:10;89.53;;;49.85;;
59263;SDS011;45030;42.720;23.344;2023-02-08T04:38:35;65.20;;;37.20;;
59263;SDS011;45030;42.720;23.344;2023-02-08T04:41:00;49.00;;;28.10;;
59263;SDS011;45030;42.720;23.344;2023-02-08T04:43:26;43.97;;;24.48;;
59263;SDS011;45030;42.720;23.344;2023-02-08T04:45:51;100.05;;;60.83;;
59263;SDS011;45030;42.720;23.344;2023-02-08T04:48:17;84.25;;;52.38;;
59263;SDS011;45030;42.720;23.344;2023-02-08T04:50:42;45.72;;;26.77;;
59263;SDS011;45030;42.720;23.344;2023-02-08T04:53:07;56.17;;;33.22;;
59263;SDS011;45030;42.720;23.344;2023-02-08T04:55:33;62.70;;;36.42;;
59263;SDS011;45030;42.720;23.344;2023-02-08T04:57:58;73.93;;;38.60;;
59263;SDS011;45030;42.720;23.344;2023-02-08T05:00:23;60.42;;;34.17;;
59263;SDS011;45030;42.720;23.344;2023-02-08T05:02:55;66.75;;;36.97;;
59263;SDS011;45030;42.720;23.344;2023-02-08T05:05:21;54.03;;;29.67;;
59263;SDS011;45030;42.720;23.344;2023-02-08T05:07:46;49.60;;;28.20;;
59263;SDS011;45030;42.720;23.344;2023-02-08T05:10:12;34.13;;;20.35;;
59263;SDS011;45030;42.720;23.344;2023-02-08T05:12:37;65.85;;;36.63;;
59263;SDS011;45030;42.720;23.344;2023-02-08T05:15:02;64.90;;;33.00;;
59263;SDS011;45030;42.720;23.344;2023-02-08T05:17:28;55.20;;;31.95;;
59263;SDS011;45030;42.720;23.344;2023-02-08T05:19:53;53.45;;;30.27;;
59263;SDS011;45030;42.720;23.344;2023-02-08T05:22:19;46.28;;;28.70;;
59263;SDS011;45030;42.720;23.344;2023-02-08T05:24:44;52.92;;;27.58;;
59263;SDS011;45030;42.720;23.344;2023-02-08T05:27:09;37.72;;;23.15;;
59263;SDS011;45030;42.720;23.344;2023-02-08T05:29:34;42.20;;;22.17;;
59263;SDS011;45030;42.720;23.344;2023-02-08T05:31:59;32.90;;;20.23;;
59263;SDS011;45030;42.720;23.344;2023-02-08T05:34:25;36.88;;;20.90;;
59263;SDS011;45030;42.720;23.344;2023-02-08T05:36:50;40.22;;;23.42;;
59263;SDS011;45030;42.720;23.344;2023-02-08T05:39:15;41.38;;;23.60;;
59263;SDS011;45030;42.720;23.344;2023-02-08T05:41:40;51.75;;;25.80;;
59263;SDS011;45030;42.720;23.344;2023-02-08T05:44:06;44.95;;;24.35;;
59263;SDS011;45030;42.720;23.344;2023-02-08T05:46:31;49.05;;;27.08;;
59263;SDS011;45030;42.720;23.344;2023-02-08T05:48:56;83.43;;;38.55;;
59263;SDS011;45030;42.720;23.344;2023-02-08T05:51:21;80.82;;;43.10;;
59263;SDS011;45030;42.720;23.344;2023-02-08T05:53:47;70.90;;;36.95;;
59263;SDS011;45030;42.720;23.344;2023-02-08T05:56:12;76.25;;;42.65;;
59263;SDS011;45030;42.720;23.344;2023-02-08T05:58:37;55.78;;;30.55;;
59263;SDS011;45030;42.720;23.344;2023-02-08T06:01:09;54.95;;;32.70;;
59263;SDS011;45030;42.720;23.344;2023-02-08T06:03:34;61.50;;;34.00;;
59263;SDS011;45030;42.720;23.344;2023-02-08T06:06:00;61.35;;;34.20;;
59263;SDS011;45030;42.720;23.344;2023-02-08T06:08:25;66.32;;;34.83;;
59263;SDS011;45030;42.720;23.344;2023-02-08T06:10:51;59.17;;;31.00;;
59263;SDS011;45030;42.720;23.344;2023-02-08T06:13:16;52.08;;;28.60;;
59263;SDS011;45030;42.720;23.344;2023-02-08T06:15:41;66.60;;;33.20;;
59263;SDS011;45030;42.720;23.344;2023-02-08T06:18:06;77.82;;;39.03;;
59263;SDS011;45030;42.720;23.344;2023-02-08T06:20:33;74.75;;;38.08;;
59263;SDS011;45030;42.720;23.344;2023-02-08T06:22:58;71.95;;;39.25;;
59263;SDS011;45030;42.720;23.344;2023-02-08T06:25:23;58.22;;;32.15;;
59263;SDS011;45030;42.720;23.344;2023-02-08T06:27:49;62.28;;;32.92;;
59263;SDS011;45030;42.720;23.344;2023-02-08T06:30:14;48.75;;;28.27;;
59263;SDS011;45030;42.720;23.344;2023-02-08T06:32:39;50.70;;;26.98;;
59263;SDS011;45030;42.720;23.344;2023-02-08T06:35:05;50.88;;;28.23;;
59263;SDS011;45030;42.720;23.344;2023-02-08T06:37:30;51.42;;;26.30;;
59263;SDS011;45030;42.720;23.344;2023-02-08T06:39:55;39.83;;;20.98;;
59263;SDS011;45030;42.720;23.344;2023-02-08T06:42:20;36.58;;;21.73;;
59263;SDS011;45030;42.720;23.344;2023-02-08T06:44:46;48.63;;;25.17;;
59263;SDS011;45030;42.720;23.344;2023-02-08T06:47:14;41.70;;;23.15;;
59263;SDS011;45030;42.720;23.344;2023-02-08T06:49:39;38.33;;;20.92;;
59263;SDS011;45030;42.720;23.344;2023-02-08T06:52:05;38.63;;;22.83;;
59263;SDS011;45030;42.720;23.344;2023-02-08T06:54:30;43.75;;;23.73;;
59263;SDS011;45030;42.720;23.344;2023-02-08T06:56:56;40.90;;;24.02;;
59263;SDS011;45030;42.720;23.344;2023-02-08T06:59:21;40.03;;;20.10;;
59263;SDS011;45030;42.720;23.344;2023-02-08T07:01:46;36.40;;;21.30;;
59263;SDS011;45030;42.720;23.344;2023-02-08T07:04:11;50.08;;;24.98;;
59263;SDS011;45030;42.720;23.344;2023-02-08T07:06:37;37.40;;;20.77;;
59263;SDS011;45030;42.720;23.344;2023-02-08T07:09:02;35.75;;;20.90;;
59263;SDS011;45030;42.720;23.344;2023-02-08T07:11:28;46.42;;;24.98;;
59263;SDS011;45030;42.720;23.344;2023-02-08T07:13:53;47.75;;;27.17;;
59263;SDS011;45030;42.720;23.344;2023-02-08T07:16:19;48.08;;;27.17;;
59263;SDS011;45030;42.720;23.344;2023-02-08T07:18:44;45.33;;;23.17;;
59263;SDS011;45030;42.720;23.344;2023-02-08T07:21:10;38.42;;;22.20;;
59263;SDS011;45030;42.720;23.344;2023-02-08T07:23:36;64.25;;;31.75;;
59263;SDS011;45030;42.720;23.344;2023-02-08T07:26:03;36.88;;;17.88;;
59263;SDS011;45030;42.720;23.344;2023-02-08T07:28:29;31.17;;;18.00;;
59263;SDS011;45030;42.720;23.344;2023-02-08T07:30:55;28.55;;;15.40;;
59263;SDS011;45030;42.720;23.344;2023-02-08T07:33:21;37.80;;;18.77;;
59263;SDS011;45030;42.720;23.344;2023-02-08T07:35:46;38.40;;;18.77;;
59263;SDS011;45030;42.720;23.344;2023-02-08T07:38:12;31.33;;;15.73;;
59263;SDS011;45030;42.720;23.344;2023-02-08T07:40:37;42.08;;;18.10;;
59263;SDS011;45030;42.720;23.344;2023-02-08T07:43:02;44.38;;;17.75;;
59263;SDS011;45030;42.720;23.344;2023-02-08T07:45:28;57.75;;;19.77;;
59263;SDS011;45030;42.720;23.344;2023-02-08T07:47:53;28.25;;;14.25;;
59263;SDS011;45030;42.720;23.344;2023-02-08T07:50:18;23.90;;;13.60;;
59263;SDS011;45030;42.720;23.344;2023-02-08T07:52:44;42.67;;;16.90;;
59263;SDS011;45030;42.720;23.344;2023-02-08T07:55:10;27.05;;;13.73;;
59263;SDS011;45030;42.720;23.344;2023-02-08T07:57:37;32.13;;;15.90;;
59263;SDS011;45030;42.720;23.344;2023-02-08T08:00:02;24.23;;;12.70;;
59263;SDS011;45030;42.720;23.344;2023-02-08T08:02:27;21.08;;;13.32;;
59263;SDS011;45030;42.720;23.344;2023-02-08T08:04:53;28.55;;;17.00;;
59263;SDS011;45030;42.720;23.344;2023-02-08T08:07:18;31.92;;;17.17;;
59263;SDS011;45030;42.720;23.344;2023-02-08T08:09:43;33.15;;;15.50;;
59263;SDS011;45030;42.720;23.344;2023-02-08T08:12:09;31.77;;;17.52;;
59263;SDS011;45030;42.720;23.344;2023-02-08T08:14:34;32.88;;;14.13;;
59263;SDS011;45030;42.720;23.344;2023-02-08T08:16:59;35.83;;;19.98;;
59263;SDS011;45030;42.720;23.344;2023-02-08T08:19:24;36.25;;;18.00;;
59263;SDS011;45030;42.720;23.344;2023-02-08T08:21:50;38.63;;;19.35;;
59263;SDS011;45030;42.720;23.344;2023-02-08T08:24:15;36.13;;;17.98;;
59263;SDS011;45030;42.720;23.344;2023-02-08T08:26:40;37.17;;;17.95;;
59263;SDS011;45030;42.720;23.344;2023-02-08T08:29:06;27.35;;;15.15;;
59263;SDS011;45030;42.720;23.344;2023-02-08T08:31:31;35.47;;;16.60;;
59263;SDS011;45030;42.720;23.344;2023-02-08T08:33:56;145.25;;;57.42;;
59263;SDS011;45030;42.720;23.344;2023-02-08T08:36:21;37.25;;;18.83;;
59263;SDS011;45030;42.720;23.344;2023-02-08T08:38:47;36.40;;;19.85;;
59263;SDS011;45030;42.720;23.344;2023-02-08T08:41:13;28.13;;;16.08;;
59263;SDS011;45030;42.720;23.344;2023-02-08T08:43:38;30.02;;;15.93;;
59263;SDS011;45030;42.720;23.344;2023-02-08T08:46:04;30.35;;;17.17;;
59263;SDS011;45030;42.720;23.344;2023-02-08T08:48:30;25.30;;;13.10;;
59263;SDS011;45030;42.720;23.344;2023-02-08T08:50:55;27.85;;;14.32;;
59263;SDS011;45030;42.720;23.344;2023-02-08T08:53:20;28.35;;;13.32;;
59263;SDS011;45030;42.720;23.344;2023-02-08T08:55:46;27.42;;;15.73;;
59263;SDS011;45030;42.720;23.344;2023-02-08T08:58:11;32.15;;;18.08;;
59263;SDS011;45030;42.720;23.344;2023-02-08T09:00:36;44.63;;;27.88;;
59263;SDS011;45030;42.720;23.344;2023-02-08T09:03:02;25.08;;;18.10;;
59263;SDS011;45030;42.720;23.344;2023-02-08T09:05:27;67.50;;;29.10;;
59263;SDS011;45030;42.720;23.344;2023-02-08T09:07:52;27.88;;;18.58;;
59263;SDS011;45030;42.720;23.344;2023-02-08T09:10:17;21.08;;;12.73;;
59263;SDS011;45030;42.720;23.344;2023-02-08T09:12:43;26.98;;;14.73;;
59263;SDS011;45030;42.720;23.344;2023-02-08T09:15:08;27.50;;;16.65;;
59263;SDS011;45030;42.720;23.344;2023-02-08T09:17:35;27.05;;;16.15;;
59263;SDS011;45030;42.720;23.344;2023-02-08T09:20:00;22.35;;;13.63;;
59263;SDS011;45030;42.720;23.344;2023-02-08T09:22:26;19.90;;;14.30;;
59263;SDS011;45030;42.720;23.344;2023-02-08T09:24:52;27.95;;;16.15;;
59263;SDS011;45030;42.720;23.344;2023-02-08T09:27:17;22.50;;;14.55;;
59263;SDS011;45030;42.720;23.344;2023-02-08T09:29:43;28.13;;;14.57;;
59263;SDS011;45030;42.720;23.344;2023-02-08T09:32:08;19.48;;;12.63;;
59263;SDS011;45030;42.720;23.344;2023-02-08T09:34:33;39.85;;;17.50;;
59263;SDS011;45030;42.720;23.344;2023-02-08T09:36:58;34.20;;;18.35;;
59263;SDS011;45030;42.720;23.344;2023-02-08T09:39:24;22.70;;;13.15;;
59263;SDS011;45030;42.720;23.344;2023-02-08T09:46:51;19.63;;;11.70;;
59263;SDS011;45030;42.720;23.344;2023-02-08T09:49:21;19.90;;;12.02;;
59263;SDS011;45030;42.720;23.344;2023-02-08T09:51:50;19.55;;;12.10;;
59263;SDS011;45030;42.720;23.344;2023-02-08T09:56:42;21.40;;;12.55;;
59263;SDS011;45030;42.720;23.344;2023-02-08T09:59:12;28.80;;;15.00;;
59263;SDS011;45030;42.720;23.344;2023-02-08T10:01:40;19.33;;;12.65;;
59263;SDS011;45030;42.720;23.344;2023-02-08T10:06:30;13.90;;;7.90;;
59263;SDS011;45030;42.720;23.344;2023-02-08T10:08:55;13.15;;;8.45;;
59263;SDS011;45030;42.720;23.344;2023-02-08T10:11:31;12.27;;;7.57;;
59263;SDS011;45030;42.720;23.344;2023-02-08T10:14:08;13.88;;;8.52;;
59263;SDS011;45030;42.720;23.344;2023-02-08T10:19:27;14.38;;;9.48;;
59263;SDS011;45030;42.720;23.344;2023-02-08T10:21:58;10.88;;;7.63;;
59263;SDS011;45030;42.720;23.344;2023-02-08T10:27:13;10.52;;;6.97;;
59263;SDS011;45030;42.720;23.344;2023-02-08T10:29:44;16.92;;;8.63;;
59263;SDS011;45030;42.720;23.344;2023-02-08T10:34:49;15.65;;;10.25;;
59263;SDS011;45030;42.720;23.344;2023-02-08T10:37:20;15.18;;;8.35;;
59263;SDS011;45030;42.720;23.344;2023-02-08T10:39:49;11.40;;;7.93;;
59263;SDS011;45030;42.720;23.344;2023-02-08T10:42:15;14.85;;;9.93;;
59263;SDS011;45030;42.720;23.344;2023-02-08T10:47:16;19.08;;;10.48;;
59263;SDS011;45030;42.720;23.344;2023-02-08T10:49:46;20.15;;;11.00;;
59263;SDS011;45030;42.720;23.344;2023-02-08T10:52:14;25.02;;;12.75;;
59263;SDS011;45030;42.720;23.344;2023-02-08T10:54:41;22.02;;;12.02;;
59263;SDS011;45030;42.720;23.344;2023-02-08T10:57:11;17.70;;;11.27;;
59263;SDS011;45030;42.720;23.344;2023-02-08T10:59:55;23.02;;;14.10;;
59263;SDS011;45030;42.720;23.344;2023-02-08T11:02:30;22.85;;;13.93;;
59263;SDS011;45030;42.720;23.344;2023-02-08T11:04:56;22.25;;;13.65;;
59263;SDS011;45030;42.720;23.344;2023-02-08T11:07:22;16.75;;;10.52;;
59263;SDS011;45030;42.720;23.344;2023-02-08T11:09:47;19.98;;;11.65;;
59263;SDS011;45030;42.720;23.344;2023-02-08T11:12:16;23.70;;;12.98;;
59263;SDS011;45030;42.720;23.344;2023-02-08T11:14:46;24.52;;;13.90;;
59263;SDS011;45030;42.720;23.344;2023-02-08T11:17:28;22.83;;;11.77;;
59263;SDS011;45030;42.720;23.344;2023-02-08T11:19:57;21.60;;;13.20;;
59263;SDS011;45030;42.720;23.344;2023-02-08T11:22:23;25.70;;;14.63;;
59263;SDS011;45030;42.720;23.344;2023-02-08T11:25:00;19.92;;;10.85;;
59263;SDS011;45030;42.720;23.344;2023-02-08T11:32:35;22.65;;;12.93;;
59263;SDS011;45030;42.720;23.344;2023-02-08T11:37:57;24.80;;;13.77;;
59263;SDS011;45030;42.720;23.344;2023-02-08T11:40:24;32.03;;;16.45;;
59263;SDS011;45030;42.720;23.344;2023-02-08T11:42:52;21.98;;;11.90;;
59263;SDS011;45030;42.720;23.344;2023-02-08T11:45:22;24.55;;;15.13;;
59263;SDS011;45030;42.720;23.344;2023-02-08T11:47:50;22.05;;;12.48;;
59263;SDS011;45030;42.720;23.344;2023-02-08T11:50:26;36.33;;;17.92;;
59263;SDS011;45030;42.720;23.344;2023-02-08T11:52:54;31.13;;;15.15;;
59263;SDS011;45030;42.720;23.344;2023-02-08T11:55:22;21.13;;;11.57;;
59263;SDS011;45030;42.720;23.344;2023-02-08T11:57:56;20.42;;;12.30;;
59263;SDS011;45030;42.720;23.344;2023-02-08T12:00:26;17.98;;;11.02;;
59263;SDS011;45030;42.720;23.344;2023-02-08T12:02:54;24.92;;;12.82;;
59263;SDS011;45030;42.720;23.344;2023-02-08T12:05:23;27.17;;;12.98;;
59263;SDS011;45030;42.720;23.344;2023-02-08T12:13:04;10.90;;;8.27;;
59263;SDS011;45030;42.720;23.344;2023-02-08T12:25:47;15.43;;;10.40;;
59263;SDS011;45030;42.720;23.344;2023-02-08T12:30:50;15.95;;;11.25;;
59263;SDS011;45030;42.720;23.344;2023-02-08T12:38:18;15.02;;;9.43;;
59263;SDS011;45030;42.720;23.344;2023-02-08T12:53:39;12.05;;;8.15;;
59263;SDS011;45030;42.720;23.344;2023-02-08T12:56:11;9.52;;;5.88;;
59263;SDS011;45030;42.720;23.344;2023-02-08T12:58:42;15.52;;;8.85;;
59263;SDS011;45030;42.720;23.344;2023-02-08T13:01:09;14.07;;;9.00;;
59263;SDS011;45030;42.720;23.344;2023-02-08T13:03:41;18.75;;;11.15;;
59263;SDS011;45030;42.720;23.344;2023-02-08T13:06:12;26.73;;;13.93;;
59263;SDS011;45030;42.720;23.344;2023-02-08T13:08:46;14.93;;;8.95;;
59263;SDS011;45030;42.720;23.344;2023-02-08T13:11:16;13.32;;;7.90;;
59263;SDS011;45030;42.720;23.344;2023-02-08T13:13:42;12.30;;;8.38;;
59263;SDS011;45030;42.720;23.344;2023-02-08T13:16:16;11.32;;;8.18;;
59263;SDS011;45030;42.720;23.344;2023-02-08T13:18:44;12.07;;;8.52;;
59263;SDS011;45030;42.720;23.344;2023-02-08T13:21:14;12.25;;;7.00;;
59263;SDS011;45030;42.720;23.344;2023-02-08T13:23:42;10.88;;;7.53;;
59263;SDS011;45030;42.720;23.344;2023-02-08T13:26:14;11.27;;;7.25;;
59263;SDS011;45030;42.720;23.344;2023-02-08T13:28:45;17.55;;;7.60;;
59263;SDS011;45030;42.720;23.344;2023-02-08T13:31:12;11.05;;;7.93;;
59263;SDS011;45030;42.720;23.344;2023-02-08T13:33:40;11.85;;;8.40;;
59263;SDS011;45030;42.720;23.344;2023-02-08T13:38:51;17.67;;;9.73;;
59263;SDS011;45030;42.720;23.344;2023-02-08T13:41:21;15.25;;;8.48;;
59263;SDS011;45030;42.720;23.344;2023-02-08T13:43:48;12.45;;;6.70;;
59263;SDS011;45030;42.720;23.344;2023-02-08T13:46:15;15.88;;;8.65;;
59263;SDS011;45030;42.720;23.344;2023-02-08T13:48:45;13.90;;;8.77;;
59263;SDS011;45030;42.720;23.344;2023-02-08T13:59:01;15.68;;;10.02;;
59263;SDS011;45030;42.720;23.344;2023-02-08T14:01:28;20.02;;;10.15;;
59263;SDS011;45030;42.720;23.344;2023-02-08T14:06:31;16.00;;;9.82;;
59263;SDS011;45030;42.720;23.344;2023-02-08T14:13:48;19.23;;;10.90;;
59263;SDS011;45030;42.720;23.344;2023-02-08T14:16:21;29.48;;;12.93;;
59263;SDS011;45030;42.720;23.344;2023-02-08T14:18:51;29.65;;;11.43;;
59263;SDS011;45030;42.720;23.344;2023-02-08T14:21:24;23.60;;;11.27;;
59263;SDS011;45030;42.720;23.344;2023-02-08T14:23:57;20.80;;;10.45;;
59263;SDS011;45030;42.720;23.344;2023-02-08T14:26:24;19.30;;;11.30;;
59263;SDS011;45030;42.720;23.344;2023-02-08T14:28:52;20.58;;;11.70;;
59263;SDS011;45030;42.720;23.344;2023-02-08T14:31:18;19.00;;;11.30;;
59263;SDS011;45030;42.720;23.344;2023-02-08T14:33:50;11.45;;;8.15;;
59263;SDS011;45030;42.720;23.344;2023-02-08T14:39:19;14.45;;;8.00;;
59263;SDS011;45030;42.720;23.344;2023-02-08T14:41:48;13.55;;;8.60;;
59263;SDS011;45030;42.720;23.344;2023-02-08T14:46:57;9.88;;;6.82;;
59263;SDS011;45030;42.720;23.344;2023-02-08T14:49:23;19.23;;;10.38;;
59263;SDS011;45030;42.720;23.344;2023-02-08T14:51:57;18.15;;;8.57;;
59263;SDS011;45030;42.720;23.344;2023-02-08T14:54:28;24.65;;;13.27;;
59263;SDS011;45030;42.720;23.344;2023-02-08T14:56:57;20.55;;;12.50;;
59263;SDS011;45030;42.720;23.344;2023-02-08T14:59:25;21.00;;;13.65;;
59263;SDS011;45030;42.720;23.344;2023-02-08T15:02:01;20.02;;;11.90;;
59263;SDS011;45030;42.720;23.344;2023-02-08T15:04:27;17.17;;;9.30;;
59263;SDS011;45030;42.720;23.344;2023-02-08T15:09:24;33.10;;;14.23;;
59263;SDS011;45030;42.720;23.344;2023-02-08T15:11:58;23.10;;;13.60;;
59263;SDS011;45030;42.720;23.344;2023-02-08T15:14:24;29.33;;;16.20;;
59263;SDS011;45030;42.720;23.344;2023-02-08T15:16:50;23.80;;;12.43;;
59263;SDS011;45030;42.720;23.344;2023-02-08T15:21:49;30.73;;;12.65;;
59263;SDS011;45030;42.720;23.344;2023-02-08T15:24:15;35.13;;;15.88;;
59263;SDS011;45030;42.720;23.344;2023-02-08T15:26:45;17.75;;;9.23;;
59263;SDS011;45030;42.720;23.344;2023-02-08T15:29:25;11.15;;;6.53;;
59263;SDS011;45030;42.720;23.344;2023-02-08T15:31:50;8.90;;;5.90;;
59263;SDS011;45030;42.720;23.344;2023-02-08T15:34:16;18.83;;;9.23;;
59263;SDS011;45030;42.720;23.344;2023-02-08T15:36:44;19.73;;;10.40;;
59263;SDS011;45030;42.720;23.344;2023-02-08T15:39:16;17.40;;;10.00;;
59263;SDS011;45030;42.720;23.344;2023-02-08T15:41:46;19.05;;;11.43;;
59263;SDS011;45030;42.720;23.344;2023-02-08T15:44:22;14.73;;;8.75;;
59263;SDS011;45030;42.720;23.344;2023-02-08T15:46:48;11.73;;;7.57;;
59263;SDS011;45030;42.720;23.344;2023-02-08T15:49:25;15.88;;;9.10;;
59263;SDS011;45030;42.720;23.344;2023-02-08T15:51:52;11.27;;;7.55;;
59263;SDS011;45030;42.720;23.344;2023-02-08T15:54:20;11.40;;;6.80;;
59263;SDS011;45030;42.720;23.344;2023-02-08T15:56:46;11.60;;;7.35;;
59263;SDS011;45030;42.720;23.344;2023-02-08T15:59:15;13.52;;;9.40;;
59263;SDS011;45030;42.720;23.344;2023-02-08T16:01:46;22.45;;;12.90;;
59263;SDS011;45030;42.720;23.344;2023-02-08T16:04:12;14.88;;;10.57;;
59263;SDS011;45030;42.720;23.344;2023-02-08T16:06:38;24.70;;;12.55;;
59263;SDS011;45030;42.720;23.344;2023-02-08T16:09:04;18.75;;;11.50;;
59263;SDS011;45030;42.720;23.344;2023-02-08T16:11:30;14.27;;;9.45;;
59263;SDS011;45030;42.720;23.344;2023-02-08T16:13:56;18.13;;;10.85;;
59263;SDS011;45030;42.720;23.344;2023-02-08T16:16:24;19.67;;;10.07;;
59263;SDS011;45030;42.720;23.344;2023-02-08T16:21:26;22.63;;;11.35;;
59263;SDS011;45030;42.720;23.344;2023-02-08T16:23:56;18.13;;;10.27;;
59263;SDS011;45030;42.720;23.344;2023-02-08T16:26:25;24.70;;;13.38;;
59263;SDS011;45030;42.720;23.344;2023-02-08T16:28:53;23.33;;;12.38;;
59263;SDS011;45030;42.720;23.344;2023-02-08T16:31:22;23.08;;;11.77;;